Carbury, North Dakota
Current Conditions -  °F | °C
As of 6:58 PM on Wednesday 26 Nov 2014 (Local Time) from KMIB Reporting Station
Clear Clear  
Wind Chill: -20°   Ceiling: Unl
Heat Index: -20°   Visibility: 10mi
Dew Point: -25°   Wind: 2mph
Humidity: 76%   Direction: 310°NW
Pressure: 30.44"   Gusts: NA
Location:  48.9505°N, 100.734°W
Report Text: KMIB 270058Z AUTO 31002KT 10SM CLR M29/M32 A3044 RMK AO2 VIS 1/2 RWY29 SLP370 T12891319
Loading
Personal Weather Stations






























Interactive Weather Map New forecast layout! Learn more

10-Day Weather Forecast

Advertisements
Track Severe Weather on mobile